sensor_id;sensor_type;location;lat;lon;timestamp;temperature;humidity
15574;DHT22;7888;46.748;8.102;2022-07-23T00:02:06;27.40;44.60
15574;DHT22;7888;46.748;8.102;2022-07-23T00:04:32;27.40;44.80
15574;DHT22;7888;46.748;8.102;2022-07-23T00:06:59;27.30;44.90
15574;DHT22;7888;46.748;8.102;2022-07-23T00:09:25;27.20;45.10
15574;DHT22;7888;46.748;8.102;2022-07-23T00:11:51;27.10;45.40
15574;DHT22;7888;46.748;8.102;2022-07-23T00:14:17;27.10;45.50
15574;DHT22;7888;46.748;8.102;2022-07-23T00:16:43;27.00;45.60
15574;DHT22;7888;46.748;8.102;2022-07-23T00:19:09;26.90;45.80
15574;DHT22;7888;46.748;8.102;2022-07-23T00:21:35;26.80;45.90
15574;DHT22;7888;46.748;8.102;2022-07-23T00:24:00;26.70;46.10
15574;DHT22;7888;46.748;8.102;2022-07-23T00:26:26;26.70;46.30
15574;DHT22;7888;46.748;8.102;2022-07-23T00:28:52;26.60;46.40
15574;DHT22;7888;46.748;8.102;2022-07-23T00:31:18;26.60;46.50
15574;DHT22;7888;46.748;8.102;2022-07-23T00:33:44;26.50;46.60
15574;DHT22;7888;46.748;8.102;2022-07-23T00:36:10;26.50;46.60
15574;DHT22;7888;46.748;8.102;2022-07-23T00:38:36;26.50;46.70
15574;DHT22;7888;46.748;8.102;2022-07-23T00:41:02;26.40;46.80
15574;DHT22;7888;46.748;8.102;2022-07-23T00:43:27;26.40;46.90
15574;DHT22;7888;46.748;8.102;2022-07-23T00:45:53;26.40;47.00
15574;DHT22;7888;46.748;8.102;2022-07-23T00:48:19;26.40;47.20
15574;DHT22;7888;46.748;8.102;2022-07-23T00:50:45;26.30;47.30
15574;DHT22;7888;46.748;8.102;2022-07-23T00:53:11;26.30;47.30
15574;DHT22;7888;46.748;8.102;2022-07-23T00:55:39;26.20;47.40
15574;DHT22;7888;46.748;8.102;2022-07-23T00:58:06;26.20;47.40
15574;DHT22;7888;46.748;8.102;2022-07-23T01:00:32;26.10;47.40
15574;DHT22;7888;46.748;8.102;2022-07-23T01:02:57;26.10;47.50
15574;DHT22;7888;46.748;8.102;2022-07-23T01:05:23;26.10;47.80
15574;DHT22;7888;46.748;8.102;2022-07-23T01:07:51;26.00;47.90
15574;DHT22;7888;46.748;8.102;2022-07-23T01:10:18;26.00;48.00
15574;DHT22;7888;46.748;8.102;2022-07-23T01:13:07;26.00;48.00
15574;DHT22;7888;46.748;8.102;2022-07-23T01:15:36;26.00;48.20
15574;DHT22;7888;46.748;8.102;2022-07-23T01:18:04;26.00;47.90
15574;DHT22;7888;46.748;8.102;2022-07-23T01:20:32;26.00;47.90
15574;DHT22;7888;46.748;8.102;2022-07-23T01:22:58;26.00;47.90
15574;DHT22;7888;46.748;8.102;2022-07-23T01:25:25;26.00;47.90
15574;DHT22;7888;46.748;8.102;2022-07-23T01:27:52;26.10;48.00
15574;DHT22;7888;46.748;8.102;2022-07-23T01:30:19;26.10;48.50
15574;DHT22;7888;46.748;8.102;2022-07-23T01:32:45;26.00;47.70
15574;DHT22;7888;46.748;8.102;2022-07-23T01:35:11;26.10;47.90
15574;DHT22;7888;46.748;8.102;2022-07-23T01:37:37;26.10;48.00
15574;DHT22;7888;46.748;8.102;2022-07-23T01:40:04;26.10;48.00
15574;DHT22;7888;46.748;8.102;2022-07-23T01:42:31;26.10;47.90
15574;DHT22;7888;46.748;8.102;2022-07-23T01:44:57;26.10;47.80
15574;DHT22;7888;46.748;8.102;2022-07-23T01:47:23;26.10;48.00
15574;DHT22;7888;46.748;8.102;2022-07-23T01:49:49;26.10;48.00
15574;DHT22;7888;46.748;8.102;2022-07-23T01:52:14;26.10;48.00
15574;DHT22;7888;46.748;8.102;2022-07-23T01:54:40;26.10;48.10
15574;DHT22;7888;46.748;8.102;2022-07-23T01:57:07;26.20;48.00
15574;DHT22;7888;46.748;8.102;2022-07-23T01:59:33;26.20;47.90
15574;DHT22;7888;46.748;8.102;2022-07-23T02:02:00;26.20;47.80
15574;DHT22;7888;46.748;8.102;2022-07-23T02:04:26;26.20;47.80
15574;DHT22;7888;46.748;8.102;2022-07-23T02:06:52;26.20;47.80
15574;DHT22;7888;46.748;8.102;2022-07-23T02:09:19;26.20;47.70
15574;DHT22;7888;46.748;8.102;2022-07-23T02:11:45;26.20;47.80
15574;DHT22;7888;46.748;8.102;2022-07-23T02:14:11;26.20;47.90
15574;DHT22;7888;46.748;8.102;2022-07-23T02:16:37;26.20;48.00
15574;DHT22;7888;46.748;8.102;2022-07-23T02:19:04;26.30;48.10
15574;DHT22;7888;46.748;8.102;2022-07-23T02:21:30;26.30;47.90
15574;DHT22;7888;46.748;8.102;2022-07-23T02:23:56;26.30;47.90
15574;DHT22;7888;46.748;8.102;2022-07-23T02:26:22;26.30;47.90
15574;DHT22;7888;46.748;8.102;2022-07-23T02:28:48;26.30;47.90
15574;DHT22;7888;46.748;8.102;2022-07-23T02:31:14;26.30;47.80
15574;DHT22;7888;46.748;8.102;2022-07-23T02:33:39;26.30;48.10
15574;DHT22;7888;46.748;8.102;2022-07-23T02:36:05;26.30;48.20
15574;DHT22;7888;46.748;8.102;2022-07-23T02:38:32;26.30;48.20
15574;DHT22;7888;46.748;8.102;2022-07-23T02:40:57;26.20;48.30
15574;DHT22;7888;46.748;8.102;2022-07-23T02:43:23;26.20;48.40
15574;DHT22;7888;46.748;8.102;2022-07-23T02:45:49;26.20;48.40
15574;DHT22;7888;46.748;8.102;2022-07-23T02:48:15;26.20;48.50
15574;DHT22;7888;46.748;8.102;2022-07-23T02:50:41;26.20;48.90
15574;DHT22;7888;46.748;8.102;2022-07-23T02:53:06;26.20;48.90
15574;DHT22;7888;46.748;8.102;2022-07-23T02:55:32;26.20;49.10
15574;DHT22;7888;46.748;8.102;2022-07-23T02:57:58;26.20;49.30
15574;DHT22;7888;46.748;8.102;2022-07-23T03:00:24;26.10;49.60
15574;DHT22;7888;46.748;8.102;2022-07-23T03:02:50;26.10;49.80
15574;DHT22;7888;46.748;8.102;2022-07-23T03:05:16;26.10;50.20
15574;DHT22;7888;46.748;8.102;2022-07-23T03:07:41;26.10;50.30
15574;DHT22;7888;46.748;8.102;2022-07-23T03:10:08;26.00;50.60
15574;DHT22;7888;46.748;8.102;2022-07-23T03:12:34;26.00;50.60
15574;DHT22;7888;46.748;8.102;2022-07-23T03:15:00;26.00;50.80
15574;DHT22;7888;46.748;8.102;2022-07-23T03:17:25;25.90;50.80
15574;DHT22;7888;46.748;8.102;2022-07-23T03:19:51;25.90;50.80
15574;DHT22;7888;46.748;8.102;2022-07-23T03:22:17;25.80;50.60
15574;DHT22;7888;46.748;8.102;2022-07-23T03:24:43;25.70;50.40
15574;DHT22;7888;46.748;8.102;2022-07-23T03:27:25;25.60;50.60
15574;DHT22;7888;46.748;8.102;2022-07-23T03:29:54;25.50;50.80
15574;DHT22;7888;46.748;8.102;2022-07-23T03:32:22;25.40;51.00
15574;DHT22;7888;46.748;8.102;2022-07-23T03:34:49;25.20;50.90
15574;DHT22;7888;46.748;8.102;2022-07-23T03:37:17;25.10;51.00
15574;DHT22;7888;46.748;8.102;2022-07-23T03:39:43;25.00;51.10
15574;DHT22;7888;46.748;8.102;2022-07-23T03:42:10;25.00;51.20
15574;DHT22;7888;46.748;8.102;2022-07-23T03:44:36;25.00;51.20
15574;DHT22;7888;46.748;8.102;2022-07-23T03:47:03;24.90;51.40
15574;DHT22;7888;46.748;8.102;2022-07-23T03:49:29;24.90;51.70
15574;DHT22;7888;46.748;8.102;2022-07-23T03:51:55;24.90;52.10
15574;DHT22;7888;46.748;8.102;2022-07-23T03:54:21;24.80;52.10
15574;DHT22;7888;46.748;8.102;2022-07-23T03:56:47;24.80;52.20
15574;DHT22;7888;46.748;8.102;2022-07-23T03:59:13;24.70;52.20
15574;DHT22;7888;46.748;8.102;2022-07-23T04:01:39;24.70;52.40
15574;DHT22;7888;46.748;8.102;2022-07-23T04:04:05;24.60;52.10
15574;DHT22;7888;46.748;8.102;2022-07-23T04:06:31;24.60;52.10
15574;DHT22;7888;46.748;8.102;2022-07-23T04:08:57;24.50;52.00
15574;DHT22;7888;46.748;8.102;2022-07-23T04:11:24;24.50;52.00
15574;DHT22;7888;46.748;8.102;2022-07-23T04:13:50;24.60;52.00
15574;DHT22;7888;46.748;8.102;2022-07-23T04:16:15;24.60;52.00
15574;DHT22;7888;46.748;8.102;2022-07-23T04:18:41;24.60;51.90
15574;DHT22;7888;46.748;8.102;2022-07-23T04:21:07;24.60;51.70
15574;DHT22;7888;46.748;8.102;2022-07-23T04:23:33;24.70;51.60
15574;DHT22;7888;46.748;8.102;2022-07-23T04:25:59;24.70;51.60
15574;DHT22;7888;46.748;8.102;2022-07-23T04:28:24;24.70;51.40
15574;DHT22;7888;46.748;8.102;2022-07-23T04:30:50;24.80;51.50
15574;DHT22;7888;46.748;8.102;2022-07-23T04:33:16;24.80;51.30
15574;DHT22;7888;46.748;8.102;2022-07-23T04:35:42;24.80;51.50
15574;DHT22;7888;46.748;8.102;2022-07-23T04:38:08;24.90;51.70
15574;DHT22;7888;46.748;8.102;2022-07-23T04:40:34;24.90;51.90
15574;DHT22;7888;46.748;8.102;2022-07-23T04:42:59;24.90;52.00
